createdAt,value
2022-10-05T00:00:29.682Z,3.47
2022-10-05T00:02:59.378Z,3.85
2022-10-05T00:05:32.273Z,4.25
2022-10-05T00:08:09.285Z,3.55
2022-10-05T00:10:37.585Z,3.38
2022-10-05T00:13:12.745Z,3.45
2022-10-05T00:15:40.571Z,3.47
2022-10-05T00:18:15.379Z,3.47
2022-10-05T00:20:44.146Z,3.67
2022-10-05T00:23:18.647Z,3.85
2022-10-05T00:25:46.620Z,3.47
2022-10-05T00:28:19.639Z,3.20
2022-10-05T00:30:47.662Z,3.45
2022-10-05T00:33:16.716Z,4.10
2022-10-05T00:35:44.496Z,4.00
2022-10-05T00:38:12.384Z,3.15
2022-10-05T00:40:54.899Z,3.55
2022-10-05T00:43:47.560Z,3.58
2022-10-05T00:46:23.399Z,3.35
2022-10-05T00:49:07.580Z,3.45
2022-10-05T00:51:38.062Z,3.50
2022-10-05T00:54:19.440Z,3.40
2022-10-05T00:57:04.046Z,3.63
2022-10-05T00:59:47.676Z,3.65
2022-10-05T01:02:18.890Z,3.65
2022-10-05T01:04:53.232Z,3.08
2022-10-05T01:07:33.099Z,3.78
2022-10-05T01:10:12.751Z,3.83
2022-10-05T01:12:49.921Z,3.95
2022-10-05T01:15:24.816Z,3.28
2022-10-05T01:17:58.432Z,3.83
2022-10-05T01:20:40.484Z,3.97
2022-10-05T01:23:43.425Z,3.90
2022-10-05T01:26:35.197Z,3.78
2022-10-05T01:29:12.333Z,3.65
2022-10-05T01:31:48.457Z,3.25
2022-10-05T01:34:23.982Z,4.25
2022-10-05T01:37:00.102Z,3.70
2022-10-05T01:39:42.704Z,3.42
2022-10-05T01:42:18.710Z,3.53
2022-10-05T01:44:56.848Z,3.83
2022-10-05T01:47:32.147Z,3.80
2022-10-05T01:50:04.654Z,3.75
2022-10-05T01:52:41.183Z,3.78
2022-10-05T01:55:18.397Z,3.65
2022-10-05T01:57:58.796Z,3.58
2022-10-05T02:00:30.755Z,3.63
2022-10-05T02:03:04.327Z,3.70
2022-10-05T02:05:39.670Z,3.88
2022-10-05T02:08:12.547Z,3.67
2022-10-05T02:10:45.787Z,3.72
2022-10-05T02:13:16.963Z,3.60
2022-10-05T02:15:50.422Z,3.65
2022-10-05T02:18:22.245Z,3.85
2022-10-05T02:20:53.378Z,4.05
2022-10-05T02:23:25.342Z,3.03
2022-10-05T02:25:56.465Z,3.70
2022-10-05T02:28:28.940Z,3.88
2022-10-05T02:31:05.355Z,3.50
2022-10-05T02:33:34.794Z,3.65
2022-10-05T02:36:03.958Z,3.78
2022-10-05T02:38:41.382Z,3.22
2022-10-05T02:41:17.793Z,3.50
2022-10-05T02:43:54.485Z,3.50
2022-10-05T02:49:13.791Z,3.50
2022-10-05T02:51:47.746Z,3.28
2022-10-05T02:54:26.251Z,3.28
2022-10-05T02:57:01.659Z,3.33
2022-10-05T02:59:36.588Z,3.50
2022-10-05T03:02:14.302Z,3.80
2022-10-05T03:04:49.220Z,3.55
2022-10-05T03:07:20.921Z,4.00
2022-10-05T03:10:00.790Z,3.63
2022-10-05T03:12:43.856Z,3.25
2022-10-05T03:15:26.086Z,3.60
2022-10-05T03:18:06.060Z,3.80
2022-10-05T03:20:43.181Z,3.35
2022-10-05T03:23:20.453Z,3.60
2022-10-05T03:26:11.298Z,3.85
2022-10-05T03:28:51.911Z,3.47
2022-10-05T03:31:26.907Z,4.13
2022-10-05T03:34:00.625Z,3.35
2022-10-05T03:36:35.808Z,4.00
2022-10-05T03:39:10.832Z,4.10
2022-10-05T03:41:46.668Z,3.60
2022-10-05T03:44:37.153Z,3.83
2022-10-05T03:47:13.533Z,3.80
2022-10-05T03:49:55.183Z,4.47
2022-10-05T03:52:28.566Z,3.70
2022-10-05T03:55:01.220Z,3.97
2022-10-05T03:57:33.324Z,3.72
2022-10-05T04:00:05.849Z,3.65
2022-10-05T04:02:37.000Z,3.58
2022-10-05T04:05:15.206Z,3.20
2022-10-05T04:07:47.450Z,4.55
2022-10-05T04:10:21.048Z,4.00
2022-10-05T04:12:55.144Z,4.22
2022-10-05T04:15:31.605Z,3.60
2022-10-05T04:18:04.335Z,3.97
2022-10-05T04:20:39.755Z,3.72
2022-10-05T04:23:18.285Z,4.15
2022-10-05T04:25:51.668Z,3.28
2022-10-05T04:28:31.983Z,3.53
2022-10-05T04:31:04.206Z,4.10
2022-10-05T04:33:33.174Z,3.63
2022-10-05T04:36:17.901Z,3.72
2022-10-05T04:38:53.595Z,3.80
2022-10-05T04:41:37.384Z,3.40
2022-10-05T04:44:19.780Z,3.75
2022-10-05T04:47:05.152Z,3.80
2022-10-05T04:49:51.078Z,4.00
2022-10-05T04:52:28.705Z,3.70
2022-10-05T04:55:05.927Z,3.05
2022-10-05T04:57:55.134Z,3.85
2022-10-05T05:00:24.966Z,3.90
2022-10-05T05:03:15.630Z,3.53
2022-10-05T05:06:15.301Z,3.45
2022-10-05T05:09:05.911Z,3.55
2022-10-05T05:11:42.861Z,3.70
2022-10-05T05:14:39.119Z,3.25
2022-10-05T05:17:23.491Z,3.55
2022-10-05T05:20:00.254Z,3.70
2022-10-05T05:22:41.569Z,3.40
2022-10-05T05:25:26.468Z,3.38
2022-10-05T05:27:56.734Z,3.42
2022-10-05T05:30:27.902Z,3.35
2022-10-05T05:33:09.723Z,2.80
2022-10-05T05:36:00.082Z,3.28
2022-10-05T05:38:35.848Z,3.42
2022-10-05T05:41:13.905Z,3.27
2022-10-05T05:43:58.927Z,3.20
2022-10-05T05:46:58.257Z,3.28
2022-10-05T05:49:26.132Z,2.85
2022-10-05T05:51:59.368Z,2.80
2022-10-05T05:54:31.997Z,3.03
2022-10-05T05:57:10.990Z,3.22
2022-10-05T06:00:00.575Z,3.05
2022-10-05T06:02:35.401Z,2.60
2022-10-05T06:05:21.196Z,2.78
2022-10-05T06:07:49.246Z,3.05
2022-10-05T06:10:29.431Z,2.97
2022-10-05T06:13:04.844Z,3.08
2022-10-05T06:15:39.481Z,2.90
2022-10-05T06:18:12.769Z,2.85
2022-10-05T06:20:45.459Z,3.45
2022-10-05T06:23:19.600Z,2.83
2022-10-05T06:26:08.275Z,2.85
2022-10-05T06:28:39.761Z,2.67
2022-10-05T06:31:21.771Z,3.03
2022-10-05T06:33:52.761Z,2.78
2022-10-05T06:36:33.874Z,2.67
2022-10-05T06:39:39.249Z,2.65
2022-10-05T06:42:24.899Z,2.90
2022-10-05T06:45:01.494Z,2.15
2022-10-05T06:47:37.597Z,2.40
2022-10-05T06:50:16.078Z,3.00
2022-10-05T06:52:59.873Z,2.75
2022-10-05T06:55:33.174Z,2.47
2022-10-05T06:58:14.113Z,2.30
2022-10-05T07:00:49.136Z,2.38
2022-10-05T07:03:26.641Z,2.72
2022-10-05T07:06:01.170Z,2.15
2022-10-05T07:08:41.705Z,2.00
2022-10-05T07:11:24.759Z,2.35
2022-10-05T07:14:14.360Z,2.45
2022-10-05T07:16:57.239Z,2.58
2022-10-05T07:19:36.352Z,2.67
2022-10-05T07:22:40.831Z,2.38
2022-10-05T07:25:16.301Z,2.55
2022-10-05T07:27:51.934Z,2.20
2022-10-05T07:30:20.150Z,2.72
2022-10-05T07:32:59.774Z,2.20
2022-10-05T07:35:57.398Z,2.67
2022-10-05T07:38:32.858Z,2.55
2022-10-05T07:41:06.781Z,2.50
2022-10-05T07:44:00.890Z,2.10
2022-10-05T07:46:43.729Z,2.17
2022-10-05T07:49:19.336Z,2.25
2022-10-05T07:51:50.586Z,2.05
2022-10-05T07:54:24.916Z,2.47
2022-10-05T07:57:02.168Z,2.05
2022-10-05T07:59:35.994Z,2.03
2022-10-05T08:02:14.196Z,1.95
2022-10-05T08:04:53.136Z,2.13
2022-10-05T08:07:21.268Z,2.72
2022-10-05T08:09:56.019Z,1.85
2022-10-05T08:12:31.893Z,2.40
2022-10-05T08:15:04.084Z,2.00
2022-10-05T08:17:41.642Z,1.98
2022-10-05T08:20:30.850Z,2.42
2022-10-05T08:23:03.282Z,2.17
2022-10-05T08:25:42.409Z,2.72
2022-10-05T08:28:18.116Z,2.10
2022-10-05T08:30:55.896Z,1.97
2022-10-05T08:33:27.227Z,2.00
2022-10-05T08:36:05.685Z,2.78
2022-10-05T08:38:34.621Z,2.47
2022-10-05T08:41:32.448Z,1.80
2022-10-05T08:44:25.213Z,2.17
2022-10-05T08:47:19.443Z,2.33
2022-10-05T08:50:04.283Z,2.08
2022-10-05T08:52:51.387Z,1.92
2022-10-05T08:55:30.496Z,2.00
2022-10-05T08:58:21.638Z,1.73
2022-10-05T09:00:57.105Z,2.25
2022-10-05T09:03:47.410Z,2.17
2022-10-05T09:06:52.635Z,2.20
2022-10-05T09:09:50.954Z,2.10
2022-10-05T09:12:40.995Z,1.77
2022-10-05T09:15:32.393Z,2.35
2022-10-05T09:18:38.940Z,1.75
2022-10-05T09:21:21.636Z,1.88
2022-10-05T09:23:57.628Z,1.88
2022-10-05T09:26:44.410Z,1.85
2022-10-05T09:29:36.897Z,2.00
2022-10-05T09:32:34.052Z,2.08
2022-10-05T09:35:18.154Z,1.88
2022-10-05T09:38:08.388Z,1.70
2022-10-05T09:41:22.367Z,2.22
2022-10-05T09:44:32.596Z,1.70
2022-10-05T09:47:30.315Z,2.00
2022-10-05T09:52:54.668Z,1.85
2022-10-05T09:55:41.643Z,1.73
2022-10-05T09:58:40.478Z,2.17
2022-10-05T10:01:34.255Z,1.88
2022-10-05T10:04:17.075Z,1.70
2022-10-05T10:07:06.252Z,1.70
2022-10-05T10:09:50.459Z,1.90
2022-10-05T10:12:30.833Z,2.17
2022-10-05T10:15:33.058Z,1.85
2022-10-05T10:18:31.131Z,2.03
2022-10-05T10:21:13.322Z,1.88
2022-10-05T10:24:00.328Z,2.35
2022-10-05T10:26:56.437Z,1.85
2022-10-05T10:29:57.464Z,1.65
2022-10-05T10:33:11.711Z,1.90
2022-10-05T10:35:45.924Z,2.90
2022-10-05T10:38:33.792Z,1.70
2022-10-05T10:41:28.932Z,2.22
2022-10-05T10:44:30.060Z,1.90
2022-10-05T10:47:25.611Z,1.92
2022-10-05T10:50:13.128Z,1.80
2022-10-05T10:52:59.603Z,1.70
2022-10-05T10:55:42.895Z,1.60
2022-10-05T10:58:52.305Z,1.45
2022-10-05T11:01:32.593Z,1.70
2022-10-05T11:04:49.491Z,2.25
2022-10-05T11:07:33.232Z,1.75
2022-10-05T11:10:19.856Z,2.22
2022-10-05T11:13:15.149Z,1.60
2022-10-05T11:16:08.832Z,1.85
2022-10-05T11:18:52.366Z,1.60
2022-10-05T11:21:31.719Z,1.58
2022-10-05T11:24:31.183Z,1.20
2022-10-05T11:30:23.404Z,1.58
2022-10-05T11:33:12.610Z,1.60
2022-10-05T11:35:59.480Z,1.50
2022-10-05T11:38:49.311Z,1.50
2022-10-05T11:41:45.327Z,1.80
2022-10-05T11:44:41.179Z,2.22
2022-10-05T11:47:18.470Z,1.88
2022-10-05T11:49:53.648Z,2.03
2022-10-05T11:52:24.277Z,1.50
2022-10-05T11:55:19.644Z,1.70
2022-10-05T11:57:54.964Z,1.60
2022-10-05T12:00:26.017Z,1.50
2022-10-05T12:03:23.929Z,1.55
2022-10-05T12:06:12.940Z,1.58
2022-10-05T12:08:53.484Z,1.30
2022-10-05T12:11:38.127Z,1.38
2022-10-05T12:14:14.631Z,1.55
2022-10-05T12:16:50.560Z,1.63
2022-10-05T12:19:27.228Z,1.58
2022-10-05T12:24:44.735Z,1.70
2022-10-05T12:27:18.011Z,1.60
2022-10-05T12:29:51.571Z,1.40
2022-10-05T12:32:25.678Z,1.70
2022-10-05T12:35:02.286Z,1.40
2022-10-05T12:37:42.523Z,2.10
2022-10-05T12:40:24.005Z,1.40
2022-10-05T12:43:01.350Z,1.75
2022-10-05T12:45:43.576Z,1.60
2022-10-05T12:48:33.562Z,1.48
2022-10-05T12:51:08.235Z,1.20
2022-10-05T12:53:50.237Z,1.75
2022-10-05T12:56:31.025Z,1.48
2022-10-05T12:59:05.967Z,1.50
2022-10-05T13:01:41.165Z,1.40
2022-10-05T13:04:24.343Z,1.55
2022-10-05T13:07:07.545Z,1.30
2022-10-05T13:09:40.812Z,1.35
2022-10-05T13:12:19.118Z,1.52
2022-10-05T13:15:00.511Z,1.42
2022-10-05T13:17:36.878Z,1.15
2022-10-05T13:20:14.599Z,1.60
2022-10-05T13:22:47.630Z,1.33
2022-10-05T13:25:28.583Z,1.40
2022-10-05T13:28:12.632Z,1.40
2022-10-05T13:30:46.284Z,1.33
2022-10-05T13:33:21.427Z,1.40
2022-10-05T13:36:01.872Z,1.50
2022-10-05T13:38:42.032Z,1.40
2022-10-05T13:41:19.392Z,1.20
2022-10-05T13:43:58.903Z,1.40
2022-10-05T13:46:37.455Z,1.23
2022-10-05T13:49:21.727Z,1.10
2022-10-05T13:51:58.944Z,1.10
2022-10-05T13:54:37.288Z,2.53
2022-10-05T13:57:17.362Z,1.55
2022-10-05T13:59:54.438Z,1.20
2022-10-05T14:02:28.253Z,1.27
2022-10-05T14:05:01.127Z,1.30
2022-10-05T14:07:35.454Z,1.45
2022-10-05T14:10:04.865Z,1.02
2022-10-05T14:12:41.114Z,1.20
2022-10-05T14:15:22.763Z,1.38
2022-10-05T14:17:52.820Z,1.13
2022-10-05T14:20:25.014Z,1.30
2022-10-05T14:22:58.456Z,1.90
2022-10-05T14:25:27.029Z,1.40
2022-10-05T14:28:02.589Z,1.15
2022-10-05T14:30:31.811Z,1.75
2022-10-05T14:33:13.947Z,1.02
2022-10-05T14:35:48.985Z,1.40
2022-10-05T14:38:25.941Z,1.15
2022-10-05T14:41:17.291Z,1.58
2022-10-05T14:43:56.010Z,1.50
2022-10-05T14:46:29.901Z,1.10
2022-10-05T14:49:22.161Z,1.63
2022-10-05T14:51:51.016Z,1.65
2022-10-05T14:54:30.918Z,1.40
2022-10-05T14:57:18.102Z,1.73
2022-10-05T15:00:00.519Z,1.40
2022-10-05T15:02:48.083Z,1.67
2022-10-05T15:05:18.667Z,1.67
2022-10-05T15:07:50.040Z,1.85
2022-10-05T15:10:33.251Z,1.75
2022-10-05T15:13:11.604Z,1.20
2022-10-05T15:15:46.056Z,1.45
2022-10-05T15:18:27.243Z,1.75
2022-10-05T15:21:13.808Z,1.42
2022-10-05T15:23:47.378Z,1.45
2022-10-05T15:26:29.000Z,1.33
2022-10-05T15:29:03.296Z,1.95
2022-10-05T15:31:39.304Z,1.27
2022-10-05T15:34:13.003Z,1.35
2022-10-05T15:36:48.009Z,1.30
2022-10-05T15:39:27.000Z,1.30
2022-10-05T15:42:01.894Z,1.60
2022-10-05T15:44:52.142Z,1.48
2022-10-05T15:47:25.860Z,1.52
2022-10-05T15:50:05.318Z,1.20
2022-10-05T15:52:39.280Z,1.70
2022-10-05T15:55:32.179Z,1.42
2022-10-05T15:58:15.846Z,1.48
2022-10-05T16:00:48.490Z,1.90
2022-10-05T16:03:23.555Z,1.50
2022-10-05T16:06:13.322Z,1.40
2022-10-05T16:09:02.472Z,1.92
2022-10-05T16:11:44.255Z,1.95
2022-10-05T16:14:31.634Z,1.42
2022-10-05T16:17:12.808Z,1.50
2022-10-05T16:19:51.329Z,1.55
2022-10-05T16:22:26.107Z,1.60
2022-10-05T16:25:08.671Z,1.63
2022-10-05T16:27:52.580Z,1.73
2022-10-05T16:30:24.075Z,1.33
2022-10-05T16:33:03.221Z,1.65
2022-10-05T16:35:44.355Z,1.60
2022-10-05T16:38:25.748Z,1.40
2022-10-05T16:41:02.182Z,1.65
2022-10-05T16:43:44.932Z,1.42
2022-10-05T16:46:22.305Z,1.83
2022-10-05T16:48:57.618Z,1.63
2022-10-05T16:51:32.069Z,1.50
2022-10-05T16:54:12.624Z,1.42
2022-10-05T16:56:45.079Z,1.98
2022-10-05T16:59:52.772Z,1.45
2022-10-05T17:02:39.711Z,1.92
2022-10-05T17:05:24.159Z,1.80
2022-10-05T17:08:09.167Z,1.80
2022-10-05T17:11:07.013Z,2.17
2022-10-05T17:14:04.852Z,1.83
2022-10-05T17:16:54.509Z,1.70
2022-10-05T17:19:41.220Z,1.98
2022-10-05T17:22:14.013Z,1.75
2022-10-05T17:24:53.726Z,2.30
2022-10-05T17:27:32.347Z,2.97
2022-10-05T17:30:36.280Z,3.63
2022-10-05T17:33:20.526Z,2.28
2022-10-05T17:35:58.243Z,2.78
2022-10-05T17:38:48.062Z,2.55
2022-10-05T17:41:21.484Z,2.10
2022-10-05T17:44:21.635Z,2.35
2022-10-05T17:46:50.596Z,2.40
2022-10-05T17:49:38.106Z,2.53
2022-10-05T17:52:40.677Z,2.00
2022-10-05T17:55:50.084Z,2.38
2022-10-05T17:59:00.680Z,1.75
2022-10-05T18:01:30.765Z,1.98
2022-10-05T18:04:26.730Z,1.65
2022-10-05T18:07:04.635Z,2.05
2022-10-05T18:09:50.720Z,1.67
2022-10-05T18:12:48.645Z,1.65
2022-10-05T18:15:46.314Z,2.03
2022-10-05T18:18:54.619Z,2.20
2022-10-05T18:21:30.457Z,1.65
2022-10-05T18:24:24.080Z,2.10
2022-10-05T18:27:03.307Z,1.90
2022-10-05T18:30:05.458Z,2.25
2022-10-05T18:32:56.185Z,1.95
2022-10-05T18:35:28.418Z,2.38
2022-10-05T18:38:07.011Z,1.90
2022-10-05T18:40:44.344Z,2.28
2022-10-05T18:43:27.658Z,2.70
2022-10-05T18:46:09.065Z,1.98
2022-10-05T18:48:47.180Z,1.90
2022-10-05T18:51:22.615Z,1.83
2022-10-05T18:54:06.706Z,2.30
2022-10-05T18:56:39.426Z,3.13
2022-10-05T18:59:25.499Z,1.85
2022-10-05T19:02:12.085Z,1.90
2022-10-05T19:04:53.597Z,2.28
2022-10-05T19:07:30.885Z,1.92
2022-10-05T19:10:09.769Z,1.63
2022-10-05T19:12:49.690Z,1.98
2022-10-05T19:15:28.813Z,2.42
2022-10-05T19:18:22.141Z,1.70
2022-10-05T19:20:59.049Z,1.88
2022-10-05T19:23:44.666Z,1.83
2022-10-05T19:26:16.824Z,1.65
2022-10-05T19:28:58.882Z,1.73
2022-10-05T19:31:37.824Z,2.05
2022-10-05T19:34:23.068Z,1.70
2022-10-05T19:37:00.395Z,1.77
2022-10-05T19:39:36.790Z,1.70
2022-10-05T19:42:22.953Z,1.80
2022-10-05T19:45:04.080Z,1.53
2022-10-05T19:47:44.076Z,2.00
2022-10-05T19:50:29.727Z,1.40
2022-10-05T19:53:12.455Z,1.80
2022-10-05T19:55:42.338Z,1.90
2022-10-05T19:58:22.385Z,2.53
2022-10-05T20:00:58.043Z,1.75
2022-10-05T20:03:29.955Z,2.13
2022-10-05T20:05:59.793Z,1.80
2022-10-05T20:08:31.852Z,1.90
2022-10-05T20:11:11.693Z,1.92
2022-10-05T20:13:42.122Z,2.00
2022-10-05T20:16:37.629Z,1.70
2022-10-05T20:19:49.698Z,2.38
2022-10-05T20:22:29.034Z,2.00
2022-10-05T20:25:00.154Z,2.13
2022-10-05T20:27:46.451Z,1.92
2022-10-05T20:30:16.482Z,2.08
2022-10-05T20:32:45.068Z,1.85
2022-10-05T20:35:15.828Z,2.03
2022-10-05T20:37:43.741Z,1.77
2022-10-05T20:40:12.550Z,1.80
2022-10-05T20:42:40.283Z,1.80
2022-10-05T20:45:09.014Z,1.63
2022-10-05T20:47:37.673Z,1.50
2022-10-05T20:50:08.985Z,2.13
2022-10-05T20:52:39.138Z,2.38
2022-10-05T20:55:09.821Z,1.60
2022-10-05T20:57:41.464Z,1.92
2022-10-05T21:00:10.814Z,1.40
2022-10-05T21:02:39.451Z,1.40
2022-10-05T21:05:07.982Z,1.70
2022-10-05T21:07:35.830Z,1.85
2022-10-05T21:10:05.687Z,2.38
2022-10-05T21:12:33.941Z,2.13
2022-10-05T21:15:04.686Z,1.40
2022-10-05T21:17:34.619Z,1.77
2022-10-05T21:20:03.716Z,2.17
2022-10-05T21:22:31.581Z,1.83
2022-10-05T21:24:59.529Z,1.70
2022-10-05T21:27:28.799Z,1.90
2022-10-05T21:29:56.681Z,1.42
2022-10-05T21:32:24.427Z,1.30
2022-10-05T21:34:52.267Z,1.80
2022-10-05T21:37:20.032Z,1.10
2022-10-05T21:39:47.955Z,1.30
2022-10-05T21:42:15.757Z,1.08
2022-10-05T21:44:44.831Z,1.42
2022-10-05T21:47:12.656Z,1.45
2022-10-05T21:49:40.409Z,0.93
2022-10-05T21:52:08.151Z,1.20
2022-10-05T21:54:36.100Z,1.42
2022-10-05T21:57:04.315Z,1.27
2022-10-05T21:59:34.825Z,0.93
2022-10-05T22:02:04.003Z,0.82
2022-10-05T22:04:31.751Z,0.70
2022-10-05T22:06:59.797Z,0.82
2022-10-05T22:09:27.836Z,0.82
2022-10-05T22:11:57.382Z,0.70
2022-10-05T22:14:25.323Z,1.00
2022-10-05T22:16:53.532Z,0.85
2022-10-05T22:19:22.860Z,0.85
2022-10-05T22:21:50.625Z,1.30
2022-10-05T22:24:18.353Z,0.77
2022-10-05T22:26:51.362Z,1.10
2022-10-05T22:29:19.924Z,1.40
2022-10-05T22:31:49.190Z,1.08
2022-10-05T22:34:19.085Z,1.15
2022-10-05T22:36:49.155Z,0.68
2022-10-05T22:39:17.233Z,0.90
2022-10-05T22:41:45.125Z,0.93
2022-10-05T22:44:12.820Z,1.20
2022-10-05T22:46:40.936Z,1.10
2022-10-05T22:49:08.671Z,1.10
2022-10-05T22:51:36.677Z,0.93
2022-10-05T22:54:06.056Z,0.80
2022-10-05T22:56:33.915Z,0.80
2022-10-05T22:59:01.638Z,0.90
2022-10-05T23:01:29.443Z,0.70
2022-10-05T23:03:57.472Z,1.67
2022-10-05T23:06:26.608Z,1.00
2022-10-05T23:08:55.259Z,0.90
2022-10-05T23:11:26.300Z,1.00
2022-10-05T23:13:55.827Z,1.20
2022-10-05T23:16:25.934Z,1.00
2022-10-05T23:18:55.598Z,1.10
2022-10-05T23:21:25.832Z,0.90
2022-10-05T23:23:53.737Z,1.13
2022-10-05T23:26:23.385Z,1.20
2022-10-05T23:28:52.534Z,1.15
2022-10-05T23:31:21.985Z,0.93
2022-10-05T23:33:50.050Z,1.70
2022-10-05T23:36:20.055Z,1.55
2022-10-05T23:38:48.477Z,1.33
2022-10-05T23:41:17.110Z,1.10
2022-10-05T23:43:45.046Z,0.93
2022-10-05T23:46:14.786Z,1.10
2022-10-05T23:48:42.795Z,1.48
2022-10-05T23:51:12.891Z,1.23
2022-10-05T23:53:40.628Z,1.70
2022-10-05T23:56:08.594Z,1.63
2022-10-05T23:58:36.351Z,1.42
